sensor_id;sensor_type;location;lat;lon;timestamp;P1;durP1;ratioP1;P2;durP2;ratioP2
27209;SDS011;14721;42.668;23.386;2023-02-04T00:00:50;7.70;;;3.50;;
27209;SDS011;14721;42.668;23.386;2023-02-04T00:03:15;8.60;;;3.93;;
27209;SDS011;14721;42.668;23.386;2023-02-04T00:05:41;5.87;;;3.07;;
27209;SDS011;14721;42.668;23.386;2023-02-04T00:08:08;9.90;;;4.03;;
27209;SDS011;14721;42.668;23.386;2023-02-04T00:10:34;5.63;;;3.30;;
27209;SDS011;14721;42.668;23.386;2023-02-04T00:13:01;7.60;;;2.57;;
27209;SDS011;14721;42.668;23.386;2023-02-04T00:15:27;4.80;;;2.97;;
27209;SDS011;14721;42.668;23.386;2023-02-04T00:17:52;5.03;;;3.50;;
27209;SDS011;14721;42.668;23.386;2023-02-04T00:20:18;5.93;;;2.90;;
27209;SDS011;14721;42.668;23.386;2023-02-04T00:22:46;10.90;;;3.00;;
27209;SDS011;14721;42.668;23.386;2023-02-04T00:25:12;6.03;;;2.50;;
27209;SDS011;14721;42.668;23.386;2023-02-04T00:27:38;7.77;;;4.33;;
27209;SDS011;14721;42.668;23.386;2023-02-04T00:30:04;5.10;;;2.40;;
27209;SDS011;14721;42.668;23.386;2023-02-04T00:32:30;7.57;;;3.43;;
27209;SDS011;14721;42.668;23.386;2023-02-04T00:34:55;5.70;;;2.93;;
27209;SDS011;14721;42.668;23.386;2023-02-04T00:37:21;8.03;;;2.80;;
27209;SDS011;14721;42.668;23.386;2023-02-04T00:39:47;6.00;;;3.03;;
27209;SDS011;14721;42.668;23.386;2023-02-04T00:42:13;6.37;;;3.13;;
27209;SDS011;14721;42.668;23.386;2023-02-04T00:44:38;7.47;;;3.80;;
27209;SDS011;14721;42.668;23.386;2023-02-04T00:47:04;7.43;;;3.27;;
27209;SDS011;14721;42.668;23.386;2023-02-04T00:49:30;5.03;;;2.73;;
27209;SDS011;14721;42.668;23.386;2023-02-04T00:51:57;6.93;;;3.23;;
27209;SDS011;14721;42.668;23.386;2023-02-04T00:54:23;8.20;;;3.73;;
27209;SDS011;14721;42.668;23.386;2023-02-04T00:56:49;7.53;;;3.17;;
27209;SDS011;14721;42.668;23.386;2023-02-04T00:59:14;7.37;;;2.93;;
27209;SDS011;14721;42.668;23.386;2023-02-04T01:01:40;7.23;;;2.83;;
27209;SDS011;14721;42.668;23.386;2023-02-04T01:04:06;7.33;;;3.40;;
27209;SDS011;14721;42.668;23.386;2023-02-04T01:06:32;8.57;;;3.60;;
27209;SDS011;14721;42.668;23.386;2023-02-04T01:08:58;7.93;;;3.73;;
27209;SDS011;14721;42.668;23.386;2023-02-04T01:11:25;6.07;;;3.10;;
27209;SDS011;14721;42.668;23.386;2023-02-04T01:13:51;7.77;;;3.77;;
27209;SDS011;14721;42.668;23.386;2023-02-04T01:16:17;10.83;;;3.67;;
27209;SDS011;14721;42.668;23.386;2023-02-04T01:18:43;12.97;;;4.70;;
27209;SDS011;14721;42.668;23.386;2023-02-04T01:21:08;8.77;;;3.87;;
27209;SDS011;14721;42.668;23.386;2023-02-04T01:23:34;10.57;;;4.13;;
27209;SDS011;14721;42.668;23.386;2023-02-04T01:26:00;10.00;;;4.63;;
27209;SDS011;14721;42.668;23.386;2023-02-04T01:28:25;9.33;;;3.73;;
27209;SDS011;14721;42.668;23.386;2023-02-04T01:30:51;7.63;;;4.60;;
27209;SDS011;14721;42.668;23.386;2023-02-04T01:33:16;11.50;;;5.50;;
27209;SDS011;14721;42.668;23.386;2023-02-04T01:35:42;10.67;;;4.50;;
27209;SDS011;14721;42.668;23.386;2023-02-04T01:38:07;8.80;;;4.40;;
27209;SDS011;14721;42.668;23.386;2023-02-04T01:40:33;13.03;;;4.40;;
27209;SDS011;14721;42.668;23.386;2023-02-04T01:42:59;7.80;;;4.07;;
27209;SDS011;14721;42.668;23.386;2023-02-04T01:45:25;9.03;;;5.20;;
27209;SDS011;14721;42.668;23.386;2023-02-04T01:47:52;9.30;;;4.70;;
27209;SDS011;14721;42.668;23.386;2023-02-04T01:50:17;11.20;;;4.60;;
27209;SDS011;14721;42.668;23.386;2023-02-04T01:52:43;6.70;;;3.20;;
27209;SDS011;14721;42.668;23.386;2023-02-04T01:55:13;12.30;;;4.90;;
27209;SDS011;14721;42.668;23.386;2023-02-04T01:57:41;9.27;;;4.00;;
27209;SDS011;14721;42.668;23.386;2023-02-04T02:00:17;12.40;;;4.20;;
27209;SDS011;14721;42.668;23.386;2023-02-04T02:02:49;9.80;;;4.30;;
27209;SDS011;14721;42.668;23.386;2023-02-04T02:05:18;8.43;;;4.87;;
27209;SDS011;14721;42.668;23.386;2023-02-04T02:07:50;9.10;;;3.23;;
27209;SDS011;14721;42.668;23.386;2023-02-04T02:10:18;7.97;;;3.97;;
27209;SDS011;14721;42.668;23.386;2023-02-04T02:12:45;7.90;;;4.00;;
27209;SDS011;14721;42.668;23.386;2023-02-04T02:15:12;10.93;;;5.13;;
27209;SDS011;14721;42.668;23.386;2023-02-04T02:17:39;8.50;;;3.67;;
27209;SDS011;14721;42.668;23.386;2023-02-04T02:20:06;11.37;;;4.60;;
27209;SDS011;14721;42.668;23.386;2023-02-04T02:25:10;8.73;;;4.20;;
27209;SDS011;14721;42.668;23.386;2023-02-04T02:27:37;9.03;;;4.30;;
27209;SDS011;14721;42.668;23.386;2023-02-04T02:30:04;11.30;;;4.90;;
27209;SDS011;14721;42.668;23.386;2023-02-04T02:32:32;9.50;;;4.10;;
27209;SDS011;14721;42.668;23.386;2023-02-04T02:34:58;10.80;;;4.87;;
27209;SDS011;14721;42.668;23.386;2023-02-04T02:37:23;10.13;;;4.27;;
27209;SDS011;14721;42.668;23.386;2023-02-04T02:39:49;8.80;;;4.30;;
27209;SDS011;14721;42.668;23.386;2023-02-04T02:42:15;15.53;;;5.40;;
27209;SDS011;14721;42.668;23.386;2023-02-04T02:44:43;9.50;;;4.10;;
27209;SDS011;14721;42.668;23.386;2023-02-04T02:47:11;8.83;;;4.47;;
27209;SDS011;14721;42.668;23.386;2023-02-04T02:49:41;8.50;;;4.27;;
27209;SDS011;14721;42.668;23.386;2023-02-04T02:52:11;10.73;;;4.20;;
27209;SDS011;14721;42.668;23.386;2023-02-04T02:54:37;8.77;;;4.97;;
27209;SDS011;14721;42.668;23.386;2023-02-04T02:57:09;8.93;;;4.10;;
27209;SDS011;14721;42.668;23.386;2023-02-04T02:59:40;9.37;;;4.40;;
27209;SDS011;14721;42.668;23.386;2023-02-04T03:02:06;12.70;;;4.40;;
27209;SDS011;14721;42.668;23.386;2023-02-04T03:04:36;14.20;;;4.67;;
27209;SDS011;14721;42.668;23.386;2023-02-04T03:07:06;9.10;;;3.87;;
27209;SDS011;14721;42.668;23.386;2023-02-04T03:09:32;13.43;;;3.93;;
27209;SDS011;14721;42.668;23.386;2023-02-04T03:11:58;8.80;;;4.07;;
27209;SDS011;14721;42.668;23.386;2023-02-04T03:14:24;9.77;;;4.97;;
27209;SDS011;14721;42.668;23.386;2023-02-04T03:16:51;9.93;;;5.07;;
27209;SDS011;14721;42.668;23.386;2023-02-04T03:19:18;11.47;;;3.47;;
27209;SDS011;14721;42.668;23.386;2023-02-04T03:21:44;11.50;;;4.73;;
27209;SDS011;14721;42.668;23.386;2023-02-04T03:24:10;11.27;;;4.23;;
27209;SDS011;14721;42.668;23.386;2023-02-04T03:26:36;10.77;;;4.37;;
27209;SDS011;14721;42.668;23.386;2023-02-04T03:29:01;8.17;;;4.23;;
27209;SDS011;14721;42.668;23.386;2023-02-04T03:31:32;9.67;;;4.43;;
27209;SDS011;14721;42.668;23.386;2023-02-04T03:33:57;12.93;;;5.47;;
27209;SDS011;14721;42.668;23.386;2023-02-04T03:36:23;13.07;;;5.60;;
27209;SDS011;14721;42.668;23.386;2023-02-04T03:38:49;12.77;;;5.17;;
27209;SDS011;14721;42.668;23.386;2023-02-04T03:41:16;11.80;;;5.93;;
27209;SDS011;14721;42.668;23.386;2023-02-04T03:43:43;9.83;;;4.03;;
27209;SDS011;14721;42.668;23.386;2023-02-04T03:46:08;13.93;;;5.17;;
27209;SDS011;14721;42.668;23.386;2023-02-04T03:48:34;12.10;;;5.10;;
27209;SDS011;14721;42.668;23.386;2023-02-04T03:51:00;9.43;;;4.20;;
27209;SDS011;14721;42.668;23.386;2023-02-04T03:53:25;11.07;;;5.07;;
27209;SDS011;14721;42.668;23.386;2023-02-04T03:55:51;11.00;;;4.67;;
27209;SDS011;14721;42.668;23.386;2023-02-04T03:58:17;6.80;;;3.57;;
27209;SDS011;14721;42.668;23.386;2023-02-04T04:00:42;9.83;;;4.93;;
27209;SDS011;14721;42.668;23.386;2023-02-04T04:03:08;10.27;;;4.93;;
27209;SDS011;14721;42.668;23.386;2023-02-04T04:05:33;9.83;;;4.07;;
27209;SDS011;14721;42.668;23.386;2023-02-04T04:07:59;6.53;;;3.70;;
27209;SDS011;14721;42.668;23.386;2023-02-04T04:10:25;7.33;;;3.77;;
27209;SDS011;14721;42.668;23.386;2023-02-04T04:12:50;6.03;;;3.10;;
27209;SDS011;14721;42.668;23.386;2023-02-04T04:15:16;10.23;;;4.67;;
27209;SDS011;14721;42.668;23.386;2023-02-04T04:17:42;8.47;;;4.10;;
27209;SDS011;14721;42.668;23.386;2023-02-04T04:20:07;6.83;;;3.53;;
27209;SDS011;14721;42.668;23.386;2023-02-04T04:22:33;9.80;;;4.07;;
27209;SDS011;14721;42.668;23.386;2023-02-04T04:24:59;9.07;;;3.67;;
27209;SDS011;14721;42.668;23.386;2023-02-04T04:27:25;10.80;;;4.30;;
27209;SDS011;14721;42.668;23.386;2023-02-04T04:29:50;11.23;;;4.40;;
27209;SDS011;14721;42.668;23.386;2023-02-04T04:32:16;8.43;;;3.83;;
27209;SDS011;14721;42.668;23.386;2023-02-04T04:34:41;10.03;;;4.50;;
27209;SDS011;14721;42.668;23.386;2023-02-04T04:37:07;6.73;;;3.57;;
27209;SDS011;14721;42.668;23.386;2023-02-04T04:39:32;10.07;;;4.90;;
27209;SDS011;14721;42.668;23.386;2023-02-04T04:41:58;11.47;;;5.43;;
27209;SDS011;14721;42.668;23.386;2023-02-04T04:44:24;9.37;;;4.47;;
27209;SDS011;14721;42.668;23.386;2023-02-04T04:46:49;9.97;;;5.33;;
27209;SDS011;14721;42.668;23.386;2023-02-04T04:49:14;10.50;;;4.47;;
27209;SDS011;14721;42.668;23.386;2023-02-04T04:51:40;8.93;;;4.87;;
27209;SDS011;14721;42.668;23.386;2023-02-04T04:54:08;9.13;;;4.13;;
27209;SDS011;14721;42.668;23.386;2023-02-04T04:56:33;12.30;;;4.53;;
27209;SDS011;14721;42.668;23.386;2023-02-04T04:58:59;7.07;;;3.53;;
27209;SDS011;14721;42.668;23.386;2023-02-04T05:01:24;7.47;;;4.30;;
27209;SDS011;14721;42.668;23.386;2023-02-04T05:03:50;9.60;;;4.63;;
27209;SDS011;14721;42.668;23.386;2023-02-04T05:06:15;10.90;;;4.30;;
27209;SDS011;14721;42.668;23.386;2023-02-04T05:08:41;8.43;;;4.27;;
27209;SDS011;14721;42.668;23.386;2023-02-04T05:11:07;9.07;;;4.80;;
27209;SDS011;14721;42.668;23.386;2023-02-04T05:13:33;9.43;;;4.47;;
27209;SDS011;14721;42.668;23.386;2023-02-04T05:15:58;9.50;;;5.40;;
27209;SDS011;14721;42.668;23.386;2023-02-04T05:18:24;8.73;;;4.47;;
27209;SDS011;14721;42.668;23.386;2023-02-04T05:20:49;8.90;;;4.40;;
27209;SDS011;14721;42.668;23.386;2023-02-04T05:23:15;7.93;;;3.90;;
27209;SDS011;14721;42.668;23.386;2023-02-04T05:25:41;10.93;;;4.77;;
27209;SDS011;14721;42.668;23.386;2023-02-04T05:28:07;9.93;;;4.40;;
27209;SDS011;14721;42.668;23.386;2023-02-04T05:30:32;9.53;;;3.93;;
27209;SDS011;14721;42.668;23.386;2023-02-04T05:32:58;8.77;;;4.53;;
27209;SDS011;14721;42.668;23.386;2023-02-04T05:35:23;7.80;;;3.37;;
27209;SDS011;14721;42.668;23.386;2023-02-04T05:37:49;9.40;;;3.80;;
27209;SDS011;14721;42.668;23.386;2023-02-04T05:40:15;6.80;;;2.57;;
27209;SDS011;14721;42.668;23.386;2023-02-04T05:42:40;4.23;;;2.00;;
27209;SDS011;14721;42.668;23.386;2023-02-04T05:45:06;1.90;;;0.87;;
27209;SDS011;14721;42.668;23.386;2023-02-04T05:47:33;2.83;;;1.27;;
27209;SDS011;14721;42.668;23.386;2023-02-04T05:49:58;1.00;;;0.90;;
27209;SDS011;14721;42.668;23.386;2023-02-04T05:52:24;1.17;;;0.73;;
27209;SDS011;14721;42.668;23.386;2023-02-04T05:54:50;1.80;;;0.87;;
27209;SDS011;14721;42.668;23.386;2023-02-04T05:57:16;0.80;;;0.80;;
27209;SDS011;14721;42.668;23.386;2023-02-04T05:59:41;2.30;;;1.07;;
27209;SDS011;14721;42.668;23.386;2023-02-04T06:02:07;2.80;;;1.20;;
27209;SDS011;14721;42.668;23.386;2023-02-04T06:04:32;1.10;;;0.80;;
27209;SDS011;14721;42.668;23.386;2023-02-04T06:06:58;1.07;;;0.90;;
27209;SDS011;14721;42.668;23.386;2023-02-04T06:09:23;1.30;;;1.00;;
27209;SDS011;14721;42.668;23.386;2023-02-04T06:11:49;1.43;;;0.80;;
27209;SDS011;14721;42.668;23.386;2023-02-04T06:14:14;1.23;;;0.80;;
27209;SDS011;14721;42.668;23.386;2023-02-04T06:16:40;1.47;;;0.87;;
27209;SDS011;14721;42.668;23.386;2023-02-04T06:19:05;1.30;;;0.90;;
27209;SDS011;14721;42.668;23.386;2023-02-04T06:21:31;1.10;;;0.87;;
27209;SDS011;14721;42.668;23.386;2023-02-04T06:23:56;3.20;;;1.30;;
27209;SDS011;14721;42.668;23.386;2023-02-04T06:26:22;1.80;;;1.03;;
27209;SDS011;14721;42.668;23.386;2023-02-04T06:28:47;1.33;;;1.00;;
27209;SDS011;14721;42.668;23.386;2023-02-04T06:31:13;3.80;;;1.20;;
27209;SDS011;14721;42.668;23.386;2023-02-04T06:33:39;4.10;;;1.10;;
27209;SDS011;14721;42.668;23.386;2023-02-04T06:36:04;5.77;;;1.20;;
27209;SDS011;14721;42.668;23.386;2023-02-04T06:38:30;2.30;;;1.03;;
27209;SDS011;14721;42.668;23.386;2023-02-04T06:40:56;0.87;;;0.77;;
27209;SDS011;14721;42.668;23.386;2023-02-04T06:43:21;1.23;;;0.80;;
27209;SDS011;14721;42.668;23.386;2023-02-04T06:45:49;1.07;;;0.80;;
27209;SDS011;14721;42.668;23.386;2023-02-04T06:48:16;1.13;;;1.00;;
27209;SDS011;14721;42.668;23.386;2023-02-04T06:50:42;6.03;;;1.40;;
27209;SDS011;14721;42.668;23.386;2023-02-04T06:53:08;1.17;;;0.70;;
27209;SDS011;14721;42.668;23.386;2023-02-04T06:55:33;2.30;;;1.00;;
27209;SDS011;14721;42.668;23.386;2023-02-04T06:57:59;1.37;;;0.70;;
27209;SDS011;14721;42.668;23.386;2023-02-04T07:00:25;2.33;;;1.10;;
27209;SDS011;14721;42.668;23.386;2023-02-04T07:02:50;2.67;;;0.60;;
27209;SDS011;14721;42.668;23.386;2023-02-04T07:05:17;6.83;;;0.97;;
27209;SDS011;14721;42.668;23.386;2023-02-04T07:07:42;2.57;;;0.90;;
27209;SDS011;14721;42.668;23.386;2023-02-04T07:10:08;2.27;;;0.80;;
27209;SDS011;14721;42.668;23.386;2023-02-04T07:12:34;3.13;;;0.90;;
27209;SDS011;14721;42.668;23.386;2023-02-04T07:15:00;1.00;;;0.50;;
27209;SDS011;14721;42.668;23.386;2023-02-04T07:17:25;1.53;;;0.80;;
27209;SDS011;14721;42.668;23.386;2023-02-04T07:19:51;2.20;;;0.80;;
27209;SDS011;14721;42.668;23.386;2023-02-04T07:22:17;4.87;;;1.10;;
27209;SDS011;14721;42.668;23.386;2023-02-04T07:24:42;3.57;;;0.73;;
27209;SDS011;14721;42.668;23.386;2023-02-04T07:27:10;2.40;;;0.97;;
27209;SDS011;14721;42.668;23.386;2023-02-04T07:29:39;5.53;;;1.20;;
27209;SDS011;14721;42.668;23.386;2023-02-04T07:32:04;5.77;;;1.77;;
27209;SDS011;14721;42.668;23.386;2023-02-04T07:34:30;3.17;;;1.07;;
27209;SDS011;14721;42.668;23.386;2023-02-04T07:36:59;2.93;;;1.30;;
27209;SDS011;14721;42.668;23.386;2023-02-04T07:39:24;1.80;;;0.90;;
27209;SDS011;14721;42.668;23.386;2023-02-04T07:41:50;2.70;;;0.73;;
27209;SDS011;14721;42.668;23.386;2023-02-04T07:44:15;1.50;;;0.93;;
27209;SDS011;14721;42.668;23.386;2023-02-04T07:46:41;2.17;;;0.80;;
27209;SDS011;14721;42.668;23.386;2023-02-04T07:49:07;1.43;;;0.80;;
27209;SDS011;14721;42.668;23.386;2023-02-04T07:51:32;1.57;;;1.10;;
27209;SDS011;14721;42.668;23.386;2023-02-04T07:53:59;6.27;;;1.33;;
27209;SDS011;14721;42.668;23.386;2023-02-04T07:56:24;2.20;;;0.97;;
27209;SDS011;14721;42.668;23.386;2023-02-04T07:58:50;1.47;;;0.73;;
27209;SDS011;14721;42.668;23.386;2023-02-04T08:01:16;5.13;;;0.70;;
27209;SDS011;14721;42.668;23.386;2023-02-04T08:03:41;6.93;;;0.90;;
27209;SDS011;14721;42.668;23.386;2023-02-04T08:06:07;5.37;;;0.80;;
27209;SDS011;14721;42.668;23.386;2023-02-04T08:08:33;2.83;;;1.00;;
27209;SDS011;14721;42.668;23.386;2023-02-04T08:10:58;6.90;;;1.00;;
27209;SDS011;14721;42.668;23.386;2023-02-04T08:13:24;0.93;;;0.70;;
27209;SDS011;14721;42.668;23.386;2023-02-04T08:15:50;2.07;;;0.77;;
27209;SDS011;14721;42.668;23.386;2023-02-04T08:18:15;3.80;;;1.00;;
27209;SDS011;14721;42.668;23.386;2023-02-04T08:20:41;1.27;;;0.80;;
27209;SDS011;14721;42.668;23.386;2023-02-04T08:23:07;1.37;;;0.70;;
27209;SDS011;14721;42.668;23.386;2023-02-04T08:25:32;1.40;;;0.80;;
27209;SDS011;14721;42.668;23.386;2023-02-04T08:27:58;2.47;;;0.63;;
27209;SDS011;14721;42.668;23.386;2023-02-04T08:30:23;0.90;;;0.60;;
27209;SDS011;14721;42.668;23.386;2023-02-04T08:32:49;4.60;;;1.00;;
27209;SDS011;14721;42.668;23.386;2023-02-04T08:35:14;1.50;;;0.70;;
27209;SDS011;14721;42.668;23.386;2023-02-04T08:37:40;4.50;;;1.10;;
27209;SDS011;14721;42.668;23.386;2023-02-04T08:40:06;2.90;;;1.40;;
27209;SDS011;14721;42.668;23.386;2023-02-04T08:42:31;4.57;;;0.93;;
27209;SDS011;14721;42.668;23.386;2023-02-04T08:44:58;3.00;;;1.50;;
27209;SDS011;14721;42.668;23.386;2023-02-04T08:47:24;2.50;;;1.40;;
27209;SDS011;14721;42.668;23.386;2023-02-04T08:49:49;5.20;;;1.33;;
27209;SDS011;14721;42.668;23.386;2023-02-04T08:52:15;2.67;;;1.37;;
27209;SDS011;14721;42.668;23.386;2023-02-04T08:54:43;1.33;;;1.20;;
27209;SDS011;14721;42.668;23.386;2023-02-04T08:57:09;2.67;;;1.00;;
27209;SDS011;14721;42.668;23.386;2023-02-04T08:59:34;3.93;;;1.10;;
27209;SDS011;14721;42.668;23.386;2023-02-04T09:02:00;3.90;;;1.40;;
27209;SDS011;14721;42.668;23.386;2023-02-04T09:04:27;1.23;;;1.00;;
27209;SDS011;14721;42.668;23.386;2023-02-04T09:06:53;1.47;;;1.20;;
27209;SDS011;14721;42.668;23.386;2023-02-04T09:09:19;3.83;;;2.00;;
27209;SDS011;14721;42.668;23.386;2023-02-04T09:11:45;1.70;;;1.23;;
27209;SDS011;14721;42.668;23.386;2023-02-04T09:14:11;2.33;;;1.33;;
27209;SDS011;14721;42.668;23.386;2023-02-04T09:16:39;8.13;;;2.87;;
27209;SDS011;14721;42.668;23.386;2023-02-04T09:19:05;1.77;;;1.40;;
27209;SDS011;14721;42.668;23.386;2023-02-04T09:21:34;2.70;;;1.47;;
27209;SDS011;14721;42.668;23.386;2023-02-04T09:23:59;3.27;;;1.30;;
27209;SDS011;14721;42.668;23.386;2023-02-04T09:26:25;2.63;;;1.53;;
27209;SDS011;14721;42.668;23.386;2023-02-04T09:28:50;5.23;;;2.63;;
27209;SDS011;14721;42.668;23.386;2023-02-04T09:31:15;1.33;;;1.07;;
27209;SDS011;14721;42.668;23.386;2023-02-04T09:33:41;1.83;;;1.13;;
27209;SDS011;14721;42.668;23.386;2023-02-04T09:36:10;1.80;;;0.90;;
27209;SDS011;14721;42.668;23.386;2023-02-04T09:38:38;2.53;;;0.70;;
27209;SDS011;14721;42.668;23.386;2023-02-04T09:41:05;1.27;;;0.77;;
27209;SDS011;14721;42.668;23.386;2023-02-04T09:43:37;1.43;;;0.80;;
27209;SDS011;14721;42.668;23.386;2023-02-04T09:46:06;1.37;;;0.70;;
27209;SDS011;14721;42.668;23.386;2023-02-04T09:48:40;1.90;;;1.00;;
27209;SDS011;14721;42.668;23.386;2023-02-04T09:51:06;1.83;;;0.77;;
27209;SDS011;14721;42.668;23.386;2023-02-04T09:53:32;3.17;;;1.00;;
27209;SDS011;14721;42.668;23.386;2023-02-04T09:55:59;1.70;;;1.10;;
27209;SDS011;14721;42.668;23.386;2023-02-04T09:58:25;1.43;;;0.87;;
27209;SDS011;14721;42.668;23.386;2023-02-04T10:00:57;3.47;;;0.50;;
27209;SDS011;14721;42.668;23.386;2023-02-04T10:03:29;2.53;;;0.70;;
27209;SDS011;14721;42.668;23.386;2023-02-04T10:05:55;1.07;;;0.70;;
27209;SDS011;14721;42.668;23.386;2023-02-04T10:08:26;1.03;;;0.83;;
27209;SDS011;14721;42.668;23.386;2023-02-04T10:10:53;1.47;;;1.03;;
27209;SDS011;14721;42.668;23.386;2023-02-04T10:13:20;3.20;;;1.50;;
27209;SDS011;14721;42.668;23.386;2023-02-04T10:15:50;2.03;;;1.20;;
27209;SDS011;14721;42.668;23.386;2023-02-04T10:18:50;0.80;;;0.80;;
27209;SDS011;14721;42.668;23.386;2023-02-04T10:24:06;2.80;;;1.00;;
27209;SDS011;14721;42.668;23.386;2023-02-04T10:26:38;2.87;;;1.23;;
27209;SDS011;14721;42.668;23.386;2023-02-04T10:29:05;1.77;;;0.93;;
27209;SDS011;14721;42.668;23.386;2023-02-04T10:31:37;1.93;;;1.10;;
27209;SDS011;14721;42.668;23.386;2023-02-04T10:34:18;0.87;;;0.70;;
27209;SDS011;14721;42.668;23.386;2023-02-04T10:36:47;2.20;;;0.70;;
27209;SDS011;14721;42.668;23.386;2023-02-04T10:39:18;4.47;;;1.20;;
27209;SDS011;14721;42.668;23.386;2023-02-04T10:41:49;1.20;;;0.93;;
27209;SDS011;14721;42.668;23.386;2023-02-04T10:44:30;2.47;;;1.40;;
27209;SDS011;14721;42.668;23.386;2023-02-04T10:46:57;1.17;;;0.80;;
27209;SDS011;14721;42.668;23.386;2023-02-04T10:49:27;2.10;;;1.07;;
27209;SDS011;14721;42.668;23.386;2023-02-04T10:51:53;1.73;;;1.20;;
27209;SDS011;14721;42.668;23.386;2023-02-04T10:54:19;1.60;;;0.90;;
27209;SDS011;14721;42.668;23.386;2023-02-04T10:56:58;2.83;;;0.90;;
27209;SDS011;14721;42.668;23.386;2023-02-04T10:59:31;2.43;;;0.90;;
27209;SDS011;14721;42.668;23.386;2023-02-04T11:01:58;2.13;;;1.10;;
27209;SDS011;14721;42.668;23.386;2023-02-04T11:04:25;0.60;;;0.60;;
27209;SDS011;14721;42.668;23.386;2023-02-04T11:06:51;1.43;;;0.80;;
27209;SDS011;14721;42.668;23.386;2023-02-04T11:09:17;2.03;;;1.10;;
27209;SDS011;14721;42.668;23.386;2023-02-04T11:11:47;1.30;;;1.07;;
27209;SDS011;14721;42.668;23.386;2023-02-04T11:14:29;1.20;;;0.80;;
27209;SDS011;14721;42.668;23.386;2023-02-04T11:16:55;1.90;;;1.10;;
27209;SDS011;14721;42.668;23.386;2023-02-04T11:19:33;1.37;;;0.97;;
27209;SDS011;14721;42.668;23.386;2023-02-04T11:22:04;4.63;;;1.97;;
27209;SDS011;14721;42.668;23.386;2023-02-04T11:24:45;1.70;;;1.10;;
27209;SDS011;14721;42.668;23.386;2023-02-04T11:27:21;2.17;;;1.10;;
27209;SDS011;14721;42.668;23.386;2023-02-04T11:29:50;1.40;;;0.93;;
27209;SDS011;14721;42.668;23.386;2023-02-04T11:32:30;1.40;;;1.00;;
27209;SDS011;14721;42.668;23.386;2023-02-04T11:37:38;2.37;;;1.30;;
27209;SDS011;14721;42.668;23.386;2023-02-04T11:43:01;1.37;;;0.70;;
27209;SDS011;14721;42.668;23.386;2023-02-04T11:45:33;0.80;;;0.67;;
27209;SDS011;14721;42.668;23.386;2023-02-04T11:48:09;2.37;;;1.10;;
27209;SDS011;14721;42.668;23.386;2023-02-04T11:50:38;3.03;;;0.97;;
27209;SDS011;14721;42.668;23.386;2023-02-04T11:53:03;1.10;;;0.80;;
27209;SDS011;14721;42.668;23.386;2023-02-04T11:55:30;2.13;;;0.80;;
27209;SDS011;14721;42.668;23.386;2023-02-04T11:57:58;2.80;;;1.13;;
27209;SDS011;14721;42.668;23.386;2023-02-04T12:00:28;1.87;;;0.90;;
27209;SDS011;14721;42.668;23.386;2023-02-04T12:02:59;1.73;;;1.00;;
27209;SDS011;14721;42.668;23.386;2023-02-04T12:05:41;2.97;;;1.37;;
27209;SDS011;14721;42.668;23.386;2023-02-04T12:13:23;1.83;;;0.83;;
27209;SDS011;14721;42.668;23.386;2023-02-04T12:15:54;1.60;;;0.97;;
27209;SDS011;14721;42.668;23.386;2023-02-04T12:18:26;2.00;;;1.00;;
27209;SDS011;14721;42.668;23.386;2023-02-04T12:20:53;0.60;;;0.60;;
27209;SDS011;14721;42.668;23.386;2023-02-04T12:23:22;3.80;;;1.63;;
27209;SDS011;14721;42.668;23.386;2023-02-04T12:25:49;1.13;;;0.80;;
27209;SDS011;14721;42.668;23.386;2023-02-04T12:28:15;0.70;;;0.63;;
27209;SDS011;14721;42.668;23.386;2023-02-04T12:30:40;0.77;;;0.50;;
27209;SDS011;14721;42.668;23.386;2023-02-04T12:33:06;1.27;;;0.83;;
27209;SDS011;14721;42.668;23.386;2023-02-04T12:35:32;2.30;;;0.90;;
27209;SDS011;14721;42.668;23.386;2023-02-04T12:37:58;1.13;;;0.90;;
27209;SDS011;14721;42.668;23.386;2023-02-04T12:40:24;1.00;;;0.90;;
27209;SDS011;14721;42.668;23.386;2023-02-04T12:42:49;1.17;;;1.00;;
27209;SDS011;14721;42.668;23.386;2023-02-04T12:45:15;2.30;;;0.97;;
27209;SDS011;14721;42.668;23.386;2023-02-04T12:47:41;2.33;;;0.93;;
27209;SDS011;14721;42.668;23.386;2023-02-04T12:50:07;1.17;;;0.97;;
27209;SDS011;14721;42.668;23.386;2023-02-04T12:52:34;2.63;;;1.13;;
27209;SDS011;14721;42.668;23.386;2023-02-04T12:55:02;1.20;;;1.07;;
27209;SDS011;14721;42.668;23.386;2023-02-04T12:57:29;2.90;;;1.20;;
27209;SDS011;14721;42.668;23.386;2023-02-04T12:59:55;2.23;;;1.20;;
27209;SDS011;14721;42.668;23.386;2023-02-04T13:02:23;2.33;;;1.30;;
27209;SDS011;14721;42.668;23.386;2023-02-04T13:04:49;3.13;;;0.90;;
27209;SDS011;14721;42.668;23.386;2023-02-04T13:07:15;1.43;;;0.90;;
27209;SDS011;14721;42.668;23.386;2023-02-04T13:09:41;2.23;;;1.10;;
27209;SDS011;14721;42.668;23.386;2023-02-04T13:12:06;0.93;;;0.83;;
27209;SDS011;14721;42.668;23.386;2023-02-04T13:14:32;2.00;;;0.70;;
27209;SDS011;14721;42.668;23.386;2023-02-04T13:16:57;2.37;;;0.70;;
27209;SDS011;14721;42.668;23.386;2023-02-04T13:19:23;0.50;;;0.50;;
27209;SDS011;14721;42.668;23.386;2023-02-04T13:21:49;0.97;;;0.77;;
27209;SDS011;14721;42.668;23.386;2023-02-04T13:24:14;1.17;;;0.63;;
27209;SDS011;14721;42.668;23.386;2023-02-04T13:26:41;2.70;;;1.10;;
27209;SDS011;14721;42.668;23.386;2023-02-04T13:29:06;1.47;;;0.60;;
27209;SDS011;14721;42.668;23.386;2023-02-04T13:31:32;0.93;;;0.70;;
27209;SDS011;14721;42.668;23.386;2023-02-04T13:33:57;0.97;;;0.37;;
27209;SDS011;14721;42.668;23.386;2023-02-04T13:36:23;0.57;;;0.40;;
27209;SDS011;14721;42.668;23.386;2023-02-04T13:38:50;0.40;;;0.30;;
27209;SDS011;14721;42.668;23.386;2023-02-04T13:41:16;0.23;;;0.23;;
27209;SDS011;14721;42.668;23.386;2023-02-04T13:43:41;0.83;;;0.40;;
27209;SDS011;14721;42.668;23.386;2023-02-04T13:46:07;0.40;;;0.40;;
27209;SDS011;14721;42.668;23.386;2023-02-04T13:48:33;0.10;;;0.10;;
27209;SDS011;14721;42.668;23.386;2023-02-04T13:50:58;0.30;;;0.30;;
27209;SDS011;14721;42.668;23.386;2023-02-04T13:53:24;0.70;;;0.50;;
27209;SDS011;14721;42.668;23.386;2023-02-04T13:55:55;0.50;;;0.37;;
27209;SDS011;14721;42.668;23.386;2023-02-04T13:58:22;0.90;;;0.70;;
27209;SDS011;14721;42.668;23.386;2023-02-04T14:00:47;0.57;;;0.57;;
27209;SDS011;14721;42.668;23.386;2023-02-04T14:03:13;0.50;;;0.50;;
27209;SDS011;14721;42.668;23.386;2023-02-04T14:05:38;0.97;;;0.57;;
27209;SDS011;14721;42.668;23.386;2023-02-04T14:08:04;0.80;;;0.43;;
27209;SDS011;14721;42.668;23.386;2023-02-04T14:10:29;2.33;;;0.90;;
27209;SDS011;14721;42.668;23.386;2023-02-04T14:12:55;0.60;;;0.50;;
27209;SDS011;14721;42.668;23.386;2023-02-04T14:15:22;1.47;;;0.80;;
27209;SDS011;14721;42.668;23.386;2023-02-04T14:17:48;1.40;;;0.80;;
27209;SDS011;14721;42.668;23.386;2023-02-04T14:20:14;0.80;;;0.50;;
27209;SDS011;14721;42.668;23.386;2023-02-04T14:22:40;3.57;;;1.00;;
27209;SDS011;14721;42.668;23.386;2023-02-04T14:25:06;1.70;;;0.70;;
27209;SDS011;14721;42.668;23.386;2023-02-04T14:27:34;1.80;;;1.20;;
27209;SDS011;14721;42.668;23.386;2023-02-04T14:30:01;4.73;;;0.80;;
27209;SDS011;14721;42.668;23.386;2023-02-04T14:32:26;1.80;;;0.90;;
27209;SDS011;14721;42.668;23.386;2023-02-04T14:34:51;1.97;;;1.13;;
27209;SDS011;14721;42.668;23.386;2023-02-04T14:37:17;3.00;;;1.03;;
27209;SDS011;14721;42.668;23.386;2023-02-04T14:39:42;0.77;;;0.60;;
27209;SDS011;14721;42.668;23.386;2023-02-04T14:42:08;1.30;;;0.70;;
27209;SDS011;14721;42.668;23.386;2023-02-04T14:44:33;0.77;;;0.43;;
27209;SDS011;14721;42.668;23.386;2023-02-04T14:46:59;1.33;;;0.73;;